sensor_id;sensor_type;location;lat;lon;timestamp;P1;durP1;ratioP1;P2;durP2;ratioP2
7883;SDS011;3987;51.458;7.238;2022-07-23T00:02:00;12.30;;;11.23;;
7883;SDS011;3987;51.458;7.238;2022-07-23T00:04:26;13.13;;;11.60;;
7883;SDS011;3987;51.458;7.238;2022-07-23T00:06:51;12.87;;;10.90;;
7883;SDS011;3987;51.458;7.238;2022-07-23T00:09:17;12.37;;;11.23;;
7883;SDS011;3987;51.458;7.238;2022-07-23T00:11:42;11.97;;;10.90;;
7883;SDS011;3987;51.458;7.238;2022-07-23T00:14:07;14.70;;;10.77;;
7883;SDS011;3987;51.458;7.238;2022-07-23T00:16:33;11.87;;;10.77;;
7883;SDS011;3987;51.458;7.238;2022-07-23T00:18:58;10.53;;;9.83;;
7883;SDS011;3987;51.458;7.238;2022-07-23T00:21:26;10.10;;;9.30;;
7883;SDS011;3987;51.458;7.238;2022-07-23T00:23:51;10.17;;;9.20;;
7883;SDS011;3987;51.458;7.238;2022-07-23T00:26:17;10.47;;;9.57;;
7883;SDS011;3987;51.458;7.238;2022-07-23T00:28:43;11.17;;;9.57;;
7883;SDS011;3987;51.458;7.238;2022-07-23T00:31:09;11.03;;;9.80;;
7883;SDS011;3987;51.458;7.238;2022-07-23T00:33:34;11.57;;;10.43;;
7883;SDS011;3987;51.458;7.238;2022-07-23T00:36:00;12.50;;;11.47;;
7883;SDS011;3987;51.458;7.238;2022-07-23T00:38:25;12.43;;;11.50;;
7883;SDS011;3987;51.458;7.238;2022-07-23T00:40:51;13.57;;;11.23;;
7883;SDS011;3987;51.458;7.238;2022-07-23T00:43:16;12.27;;;11.17;;
7883;SDS011;3987;51.458;7.238;2022-07-23T00:45:42;13.53;;;12.13;;
7883;SDS011;3987;51.458;7.238;2022-07-23T00:48:07;13.83;;;12.20;;
7883;SDS011;3987;51.458;7.238;2022-07-23T00:50:32;13.10;;;11.77;;
7883;SDS011;3987;51.458;7.238;2022-07-23T00:52:58;13.50;;;11.60;;
7883;SDS011;3987;51.458;7.238;2022-07-23T00:55:23;14.60;;;11.73;;
7883;SDS011;3987;51.458;7.238;2022-07-23T00:57:49;14.93;;;11.13;;
7883;SDS011;3987;51.458;7.238;2022-07-23T01:00:15;16.00;;;12.60;;
7883;SDS011;3987;51.458;7.238;2022-07-23T01:02:41;16.73;;;12.60;;
7883;SDS011;3987;51.458;7.238;2022-07-23T01:05:07;14.83;;;12.63;;
7883;SDS011;3987;51.458;7.238;2022-07-23T01:07:34;15.13;;;12.43;;
7883;SDS011;3987;51.458;7.238;2022-07-23T01:10:00;14.60;;;13.10;;
7883;SDS011;3987;51.458;7.238;2022-07-23T01:12:26;14.37;;;12.73;;
7883;SDS011;3987;51.458;7.238;2022-07-23T01:14:55;14.13;;;12.53;;
7883;SDS011;3987;51.458;7.238;2022-07-23T01:17:20;13.37;;;12.10;;
7883;SDS011;3987;51.458;7.238;2022-07-23T01:19:46;14.17;;;12.73;;
7883;SDS011;3987;51.458;7.238;2022-07-23T01:22:11;19.13;;;13.70;;
7883;SDS011;3987;51.458;7.238;2022-07-23T01:24:37;18.03;;;13.80;;
7883;SDS011;3987;51.458;7.238;2022-07-23T01:27:04;14.67;;;13.17;;
7883;SDS011;3987;51.458;7.238;2022-07-23T01:29:33;16.90;;;14.73;;
7883;SDS011;3987;51.458;7.238;2022-07-23T01:32:03;14.93;;;13.60;;
7883;SDS011;3987;51.458;7.238;2022-07-23T01:34:28;16.90;;;14.23;;
7883;SDS011;3987;51.458;7.238;2022-07-23T01:36:54;15.70;;;13.47;;
7883;SDS011;3987;51.458;7.238;2022-07-23T01:39:20;18.33;;;15.03;;
7883;SDS011;3987;51.458;7.238;2022-07-23T01:41:45;15.27;;;13.87;;
7883;SDS011;3987;51.458;7.238;2022-07-23T01:44:12;17.03;;;15.23;;
7883;SDS011;3987;51.458;7.238;2022-07-23T01:46:39;16.83;;;15.23;;
7883;SDS011;3987;51.458;7.238;2022-07-23T01:49:05;20.40;;;14.83;;
7883;SDS011;3987;51.458;7.238;2022-07-23T01:51:51;16.50;;;14.80;;
7883;SDS011;3987;51.458;7.238;2022-07-23T01:54:30;19.37;;;16.20;;
7883;SDS011;3987;51.458;7.238;2022-07-23T01:56:58;18.27;;;14.73;;
7883;SDS011;3987;51.458;7.238;2022-07-23T01:59:24;18.40;;;15.67;;
7883;SDS011;3987;51.458;7.238;2022-07-23T02:01:50;18.60;;;15.67;;
7883;SDS011;3987;51.458;7.238;2022-07-23T02:04:16;18.20;;;16.07;;
7883;SDS011;3987;51.458;7.238;2022-07-23T02:06:42;18.33;;;15.17;;
7883;SDS011;3987;51.458;7.238;2022-07-23T02:09:08;22.63;;;16.20;;
7883;SDS011;3987;51.458;7.238;2022-07-23T02:11:33;21.97;;;16.07;;
7883;SDS011;3987;51.458;7.238;2022-07-23T02:13:59;17.63;;;15.90;;
7883;SDS011;3987;51.458;7.238;2022-07-23T02:16:24;18.13;;;16.07;;
7883;SDS011;3987;51.458;7.238;2022-07-23T02:18:50;18.93;;;16.60;;
7883;SDS011;3987;51.458;7.238;2022-07-23T02:21:15;21.63;;;15.30;;
7883;SDS011;3987;51.458;7.238;2022-07-23T02:23:41;20.63;;;17.77;;
7883;SDS011;3987;51.458;7.238;2022-07-23T02:26:06;18.43;;;16.40;;
7883;SDS011;3987;51.458;7.238;2022-07-23T02:28:32;19.00;;;16.97;;
7883;SDS011;3987;51.458;7.238;2022-07-23T02:30:57;20.93;;;17.23;;
7883;SDS011;3987;51.458;7.238;2022-07-23T02:33:22;18.70;;;16.67;;
7883;SDS011;3987;51.458;7.238;2022-07-23T02:35:49;18.13;;;16.10;;
7883;SDS011;3987;51.458;7.238;2022-07-23T02:38:15;20.97;;;16.67;;
7883;SDS011;3987;51.458;7.238;2022-07-23T02:40:41;19.70;;;16.27;;
7883;SDS011;3987;51.458;7.238;2022-07-23T02:43:06;21.33;;;17.23;;
7883;SDS011;3987;51.458;7.238;2022-07-23T02:45:32;19.03;;;16.23;;
7883;SDS011;3987;51.458;7.238;2022-07-23T02:47:57;24.17;;;18.73;;
7883;SDS011;3987;51.458;7.238;2022-07-23T02:50:23;18.30;;;16.37;;
7883;SDS011;3987;51.458;7.238;2022-07-23T02:52:49;21.30;;;17.00;;
7883;SDS011;3987;51.458;7.238;2022-07-23T02:55:15;19.73;;;16.23;;
7883;SDS011;3987;51.458;7.238;2022-07-23T02:57:40;19.20;;;16.10;;
7883;SDS011;3987;51.458;7.238;2022-07-23T03:00:06;20.53;;;16.57;;
7883;SDS011;3987;51.458;7.238;2022-07-23T03:02:32;19.10;;;17.00;;
7883;SDS011;3987;51.458;7.238;2022-07-23T03:04:58;21.53;;;16.63;;
7883;SDS011;3987;51.458;7.238;2022-07-23T03:07:23;20.53;;;17.20;;
7883;SDS011;3987;51.458;7.238;2022-07-23T03:09:50;19.63;;;15.97;;
7883;SDS011;3987;51.458;7.238;2022-07-23T03:12:15;18.83;;;17.03;;
7883;SDS011;3987;51.458;7.238;2022-07-23T03:14:40;19.40;;;15.07;;
7883;SDS011;3987;51.458;7.238;2022-07-23T03:17:06;19.40;;;16.30;;
7883;SDS011;3987;51.458;7.238;2022-07-23T03:19:32;21.37;;;15.67;;
7883;SDS011;3987;51.458;7.238;2022-07-23T03:21:57;17.40;;;15.10;;
7883;SDS011;3987;51.458;7.238;2022-07-23T03:24:23;17.80;;;15.90;;
7883;SDS011;3987;51.458;7.238;2022-07-23T03:27:09;20.77;;;16.70;;
7883;SDS011;3987;51.458;7.238;2022-07-23T03:29:34;20.13;;;17.93;;
7883;SDS011;3987;51.458;7.238;2022-07-23T03:32:02;20.90;;;16.60;;
7883;SDS011;3987;51.458;7.238;2022-07-23T03:34:28;18.67;;;16.37;;
7883;SDS011;3987;51.458;7.238;2022-07-23T03:36:54;17.87;;;16.00;;
7883;SDS011;3987;51.458;7.238;2022-07-23T03:39:19;17.50;;;15.80;;
7883;SDS011;3987;51.458;7.238;2022-07-23T03:41:45;18.67;;;16.60;;
7883;SDS011;3987;51.458;7.238;2022-07-23T03:44:10;16.67;;;15.00;;
7883;SDS011;3987;51.458;7.238;2022-07-23T03:46:35;19.63;;;15.77;;
7883;SDS011;3987;51.458;7.238;2022-07-23T03:49:01;17.80;;;15.93;;
7883;SDS011;3987;51.458;7.238;2022-07-23T03:51:26;18.20;;;15.73;;
7883;SDS011;3987;51.458;7.238;2022-07-23T03:53:52;17.73;;;15.83;;
7883;SDS011;3987;51.458;7.238;2022-07-23T03:56:17;18.63;;;16.70;;
7883;SDS011;3987;51.458;7.238;2022-07-23T03:58:43;18.73;;;16.23;;
7883;SDS011;3987;51.458;7.238;2022-07-23T04:01:08;20.10;;;16.47;;
7883;SDS011;3987;51.458;7.238;2022-07-23T04:03:34;18.50;;;16.47;;
7883;SDS011;3987;51.458;7.238;2022-07-23T04:05:59;17.60;;;15.77;;
7883;SDS011;3987;51.458;7.238;2022-07-23T04:08:27;20.73;;;16.07;;
7883;SDS011;3987;51.458;7.238;2022-07-23T04:10:53;17.97;;;16.17;;
7883;SDS011;3987;51.458;7.238;2022-07-23T04:13:20;19.23;;;17.17;;
7883;SDS011;3987;51.458;7.238;2022-07-23T04:15:46;18.93;;;15.83;;
7883;SDS011;3987;51.458;7.238;2022-07-23T04:18:11;18.23;;;16.43;;
7883;SDS011;3987;51.458;7.238;2022-07-23T04:20:44;22.30;;;17.97;;
7883;SDS011;3987;51.458;7.238;2022-07-23T04:23:10;17.00;;;15.30;;
7883;SDS011;3987;51.458;7.238;2022-07-23T04:25:36;17.83;;;16.03;;
7883;SDS011;3987;51.458;7.238;2022-07-23T04:28:01;22.63;;;18.90;;
7883;SDS011;3987;51.458;7.238;2022-07-23T04:30:27;22.73;;;16.97;;
7883;SDS011;3987;51.458;7.238;2022-07-23T04:32:53;19.67;;;17.53;;
7883;SDS011;3987;51.458;7.238;2022-07-23T04:35:23;18.73;;;16.77;;
7883;SDS011;3987;51.458;7.238;2022-07-23T04:37:51;18.57;;;16.77;;
7883;SDS011;3987;51.458;7.238;2022-07-23T04:40:17;17.70;;;16.00;;
7883;SDS011;3987;51.458;7.238;2022-07-23T04:42:43;19.50;;;17.00;;
7883;SDS011;3987;51.458;7.238;2022-07-23T04:45:08;20.80;;;18.03;;
7883;SDS011;3987;51.458;7.238;2022-07-23T04:47:34;22.10;;;17.87;;
7883;SDS011;3987;51.458;7.238;2022-07-23T04:50:01;20.43;;;18.10;;
7883;SDS011;3987;51.458;7.238;2022-07-23T04:52:26;23.63;;;19.00;;
7883;SDS011;3987;51.458;7.238;2022-07-23T04:54:52;23.87;;;19.30;;
7883;SDS011;3987;51.458;7.238;2022-07-23T04:57:17;22.27;;;18.73;;
7883;SDS011;3987;51.458;7.238;2022-07-23T04:59:43;21.97;;;18.50;;
7883;SDS011;3987;51.458;7.238;2022-07-23T05:02:10;18.73;;;16.87;;
7883;SDS011;3987;51.458;7.238;2022-07-23T05:04:35;19.13;;;16.37;;
7883;SDS011;3987;51.458;7.238;2022-07-23T05:07:01;19.00;;;15.87;;
7883;SDS011;3987;51.458;7.238;2022-07-23T05:09:27;18.20;;;14.60;;
7883;SDS011;3987;51.458;7.238;2022-07-23T05:11:53;17.37;;;15.63;;
7883;SDS011;3987;51.458;7.238;2022-07-23T05:14:20;16.97;;;15.47;;
7883;SDS011;3987;51.458;7.238;2022-07-23T05:16:47;17.30;;;15.57;;
7883;SDS011;3987;51.458;7.238;2022-07-23T05:19:18;18.80;;;15.73;;
7883;SDS011;3987;51.458;7.238;2022-07-23T05:21:44;16.40;;;14.93;;
7883;SDS011;3987;51.458;7.238;2022-07-23T05:24:10;19.10;;;15.30;;
7883;SDS011;3987;51.458;7.238;2022-07-23T05:26:36;16.67;;;15.20;;
7883;SDS011;3987;51.458;7.238;2022-07-23T05:29:02;15.70;;;14.27;;
7883;SDS011;3987;51.458;7.238;2022-07-23T05:31:28;15.70;;;14.23;;
7883;SDS011;3987;51.458;7.238;2022-07-23T05:33:53;15.57;;;13.97;;
7883;SDS011;3987;51.458;7.238;2022-07-23T05:36:19;17.87;;;15.87;;
7883;SDS011;3987;51.458;7.238;2022-07-23T05:39:03;15.60;;;14.20;;
7883;SDS011;3987;51.458;7.238;2022-07-23T05:41:32;16.33;;;14.83;;
7883;SDS011;3987;51.458;7.238;2022-07-23T05:43:58;16.37;;;14.57;;
7883;SDS011;3987;51.458;7.238;2022-07-23T05:46:24;16.67;;;15.20;;
7883;SDS011;3987;51.458;7.238;2022-07-23T05:48:55;16.37;;;14.70;;
7883;SDS011;3987;51.458;7.238;2022-07-23T05:51:39;18.33;;;16.30;;
7883;SDS011;3987;51.458;7.238;2022-07-23T05:54:04;17.67;;;15.97;;
7883;SDS011;3987;51.458;7.238;2022-07-23T05:56:34;19.40;;;17.07;;
7883;SDS011;3987;51.458;7.238;2022-07-23T05:58:59;21.07;;;18.70;;
7883;SDS011;3987;51.458;7.238;2022-07-23T06:01:25;19.23;;;17.33;;
7883;SDS011;3987;51.458;7.238;2022-07-23T06:04:04;22.93;;;19.10;;
7883;SDS011;3987;51.458;7.238;2022-07-23T06:06:34;20.57;;;18.37;;
7883;SDS011;3987;51.458;7.238;2022-07-23T06:09:00;24.47;;;18.97;;
7883;SDS011;3987;51.458;7.238;2022-07-23T06:11:25;21.30;;;19.03;;
7883;SDS011;3987;51.458;7.238;2022-07-23T06:13:51;24.07;;;20.53;;
7883;SDS011;3987;51.458;7.238;2022-07-23T06:16:18;23.30;;;19.17;;
7883;SDS011;3987;51.458;7.238;2022-07-23T06:18:44;23.10;;;19.97;;
7883;SDS011;3987;51.458;7.238;2022-07-23T06:21:10;28.00;;;21.17;;
7883;SDS011;3987;51.458;7.238;2022-07-23T06:23:35;25.93;;;21.37;;
7883;SDS011;3987;51.458;7.238;2022-07-23T06:26:01;27.47;;;21.40;;
7883;SDS011;3987;51.458;7.238;2022-07-23T06:28:26;33.93;;;23.17;;
7883;SDS011;3987;51.458;7.238;2022-07-23T06:30:51;32.40;;;23.43;;
7883;SDS011;3987;51.458;7.238;2022-07-23T06:33:17;28.93;;;22.17;;
7883;SDS011;3987;51.458;7.238;2022-07-23T06:35:43;27.57;;;22.07;;
7883;SDS011;3987;51.458;7.238;2022-07-23T06:38:08;31.80;;;23.03;;
7883;SDS011;3987;51.458;7.238;2022-07-23T06:40:34;27.17;;;21.73;;
7883;SDS011;3987;51.458;7.238;2022-07-23T06:43:00;29.90;;;23.03;;
7883;SDS011;3987;51.458;7.238;2022-07-23T06:45:26;34.03;;;22.73;;
7883;SDS011;3987;51.458;7.238;2022-07-23T06:47:52;27.13;;;21.70;;
7883;SDS011;3987;51.458;7.238;2022-07-23T06:50:18;24.10;;;20.77;;
7883;SDS011;3987;51.458;7.238;2022-07-23T06:52:43;29.00;;;20.90;;
7883;SDS011;3987;51.458;7.238;2022-07-23T06:55:09;29.23;;;21.73;;
7883;SDS011;3987;51.458;7.238;2022-07-23T06:57:35;31.03;;;21.00;;
7883;SDS011;3987;51.458;7.238;2022-07-23T07:00:00;27.03;;;22.03;;
7883;SDS011;3987;51.458;7.238;2022-07-23T07:02:26;26.30;;;20.93;;
7883;SDS011;3987;51.458;7.238;2022-07-23T07:04:53;28.07;;;22.03;;
7883;SDS011;3987;51.458;7.238;2022-07-23T07:07:18;23.73;;;20.60;;
7883;SDS011;3987;51.458;7.238;2022-07-23T07:09:44;24.23;;;21.60;;
7883;SDS011;3987;51.458;7.238;2022-07-23T07:12:09;28.30;;;23.10;;
7883;SDS011;3987;51.458;7.238;2022-07-23T07:14:37;28.77;;;21.37;;
7883;SDS011;3987;51.458;7.238;2022-07-23T07:17:02;25.87;;;21.20;;
7883;SDS011;3987;51.458;7.238;2022-07-23T07:19:27;29.33;;;20.63;;
7883;SDS011;3987;51.458;7.238;2022-07-23T07:21:53;28.93;;;20.57;;
7883;SDS011;3987;51.458;7.238;2022-07-23T07:24:18;26.00;;;21.20;;
7883;SDS011;3987;51.458;7.238;2022-07-23T07:26:45;26.03;;;19.23;;
7883;SDS011;3987;51.458;7.238;2022-07-23T07:29:10;22.13;;;19.00;;
7883;SDS011;3987;51.458;7.238;2022-07-23T07:31:36;26.47;;;21.03;;
7883;SDS011;3987;51.458;7.238;2022-07-23T07:34:01;29.67;;;21.53;;
7883;SDS011;3987;51.458;7.238;2022-07-23T07:36:27;24.83;;;20.63;;
7883;SDS011;3987;51.458;7.238;2022-07-23T07:38:52;26.03;;;20.63;;
7883;SDS011;3987;51.458;7.238;2022-07-23T07:41:18;21.73;;;19.03;;
7883;SDS011;3987;51.458;7.238;2022-07-23T07:43:47;21.37;;;18.83;;
7883;SDS011;3987;51.458;7.238;2022-07-23T07:46:13;24.20;;;19.33;;
7883;SDS011;3987;51.458;7.238;2022-07-23T07:48:38;27.43;;;18.93;;
7883;SDS011;3987;51.458;7.238;2022-07-23T07:51:04;20.73;;;17.63;;
7883;SDS011;3987;51.458;7.238;2022-07-23T07:53:30;18.33;;;16.73;;
7883;SDS011;3987;51.458;7.238;2022-07-23T07:55:55;16.27;;;14.60;;
7883;SDS011;3987;51.458;7.238;2022-07-23T07:58:21;16.33;;;14.80;;
7883;SDS011;3987;51.458;7.238;2022-07-23T08:00:46;18.63;;;15.57;;
7883;SDS011;3987;51.458;7.238;2022-07-23T08:03:12;17.90;;;16.20;;
7883;SDS011;3987;51.458;7.238;2022-07-23T08:05:37;17.27;;;15.43;;
7883;SDS011;3987;51.458;7.238;2022-07-23T08:08:03;17.53;;;15.93;;
7883;SDS011;3987;51.458;7.238;2022-07-23T08:10:28;15.53;;;14.20;;
7883;SDS011;3987;51.458;7.238;2022-07-23T08:12:55;13.43;;;12.30;;
7883;SDS011;3987;51.458;7.238;2022-07-23T08:15:22;14.57;;;13.20;;
7883;SDS011;3987;51.458;7.238;2022-07-23T08:17:48;14.43;;;13.27;;
7883;SDS011;3987;51.458;7.238;2022-07-23T08:20:15;14.13;;;12.93;;
7883;SDS011;3987;51.458;7.238;2022-07-23T08:22:42;14.50;;;13.07;;
7883;SDS011;3987;51.458;7.238;2022-07-23T08:25:11;12.57;;;11.63;;
7883;SDS011;3987;51.458;7.238;2022-07-23T08:27:36;12.07;;;11.07;;
7883;SDS011;3987;51.458;7.238;2022-07-23T08:30:02;11.73;;;10.63;;
7883;SDS011;3987;51.458;7.238;2022-07-23T08:32:28;12.43;;;11.30;;
7883;SDS011;3987;51.458;7.238;2022-07-23T08:34:53;12.60;;;11.37;;
7883;SDS011;3987;51.458;7.238;2022-07-23T08:37:19;10.23;;;9.60;;
7883;SDS011;3987;51.458;7.238;2022-07-23T08:39:44;10.27;;;9.47;;
7883;SDS011;3987;51.458;7.238;2022-07-23T08:42:10;10.87;;;10.17;;
7883;SDS011;3987;51.458;7.238;2022-07-23T08:44:36;11.20;;;10.57;;
7883;SDS011;3987;51.458;7.238;2022-07-23T08:47:02;10.97;;;10.17;;
7883;SDS011;3987;51.458;7.238;2022-07-23T08:49:28;11.60;;;11.00;;
7883;SDS011;3987;51.458;7.238;2022-07-23T08:51:54;12.27;;;11.53;;
7883;SDS011;3987;51.458;7.238;2022-07-23T08:54:20;11.60;;;11.20;;
7883;SDS011;3987;51.458;7.238;2022-07-23T08:56:46;13.80;;;13.00;;
7883;SDS011;3987;51.458;7.238;2022-07-23T08:59:13;12.47;;;11.60;;
7883;SDS011;3987;51.458;7.238;2022-07-23T09:01:38;14.20;;;13.30;;
7883;SDS011;3987;51.458;7.238;2022-07-23T09:04:04;12.97;;;12.07;;
7883;SDS011;3987;51.458;7.238;2022-07-23T09:06:29;12.70;;;11.80;;
7883;SDS011;3987;51.458;7.238;2022-07-23T09:08:55;14.80;;;13.67;;
7883;SDS011;3987;51.458;7.238;2022-07-23T09:11:21;13.33;;;12.73;;
7883;SDS011;3987;51.458;7.238;2022-07-23T09:13:53;12.13;;;11.53;;
7883;SDS011;3987;51.458;7.238;2022-07-23T09:18:46;11.40;;;10.90;;
7883;SDS011;3987;51.458;7.238;2022-07-23T09:23:56;13.60;;;12.63;;
7883;SDS011;3987;51.458;7.238;2022-07-23T09:34:11;11.20;;;10.63;;
7883;SDS011;3987;51.458;7.238;2022-07-23T09:36:38;12.00;;;11.20;;
7883;SDS011;3987;51.458;7.238;2022-07-23T09:39:03;14.47;;;13.23;;
7883;SDS011;3987;51.458;7.238;2022-07-23T09:41:39;11.50;;;10.57;;
7883;SDS011;3987;51.458;7.238;2022-07-23T09:44:11;10.57;;;10.00;;
7883;SDS011;3987;51.458;7.238;2022-07-23T09:46:37;11.47;;;10.97;;
7883;SDS011;3987;51.458;7.238;2022-07-23T09:49:11;10.80;;;10.30;;
7883;SDS011;3987;51.458;7.238;2022-07-23T09:51:47;7.23;;;6.93;;
7883;SDS011;3987;51.458;7.238;2022-07-23T09:54:21;8.13;;;7.93;;
7883;SDS011;3987;51.458;7.238;2022-07-23T09:56:47;9.47;;;9.03;;
7883;SDS011;3987;51.458;7.238;2022-07-23T09:59:13;7.63;;;7.33;;
7883;SDS011;3987;51.458;7.238;2022-07-23T10:01:42;8.17;;;7.80;;
7883;SDS011;3987;51.458;7.238;2022-07-23T10:04:08;7.50;;;6.87;;
7883;SDS011;3987;51.458;7.238;2022-07-23T10:06:57;7.20;;;6.70;;
7883;SDS011;3987;51.458;7.238;2022-07-23T10:09:42;7.17;;;6.67;;
7883;SDS011;3987;51.458;7.238;2022-07-23T10:12:34;7.27;;;6.73;;
7883;SDS011;3987;51.458;7.238;2022-07-23T10:15:16;6.37;;;5.97;;
7883;SDS011;3987;51.458;7.238;2022-07-23T10:17:42;5.67;;;5.47;;
7883;SDS011;3987;51.458;7.238;2022-07-23T10:20:08;4.87;;;4.73;;
7883;SDS011;3987;51.458;7.238;2022-07-23T10:22:35;5.30;;;4.97;;
7883;SDS011;3987;51.458;7.238;2022-07-23T10:25:08;4.40;;;4.10;;
7883;SDS011;3987;51.458;7.238;2022-07-23T10:38:37;3.50;;;3.40;;
7883;SDS011;3987;51.458;7.238;2022-07-23T10:41:17;3.07;;;2.87;;
7883;SDS011;3987;51.458;7.238;2022-07-23T10:44:13;4.20;;;3.97;;
7883;SDS011;3987;51.458;7.238;2022-07-23T10:46:59;3.73;;;3.43;;
7883;SDS011;3987;51.458;7.238;2022-07-23T10:49:45;6.03;;;4.70;;
7883;SDS011;3987;51.458;7.238;2022-07-23T10:54:39;3.50;;;3.30;;
7883;SDS011;3987;51.458;7.238;2022-07-23T10:57:09;3.53;;;3.20;;
7883;SDS011;3987;51.458;7.238;2022-07-23T11:02:37;3.50;;;3.40;;
7883;SDS011;3987;51.458;7.238;2022-07-23T11:05:04;2.77;;;2.73;;
7883;SDS011;3987;51.458;7.238;2022-07-23T11:07:32;4.30;;;3.20;;
7883;SDS011;3987;51.458;7.238;2022-07-23T11:09:57;3.83;;;3.73;;
7883;SDS011;3987;51.458;7.238;2022-07-23T11:14:58;3.37;;;3.27;;
7883;SDS011;3987;51.458;7.238;2022-07-23T11:17:35;2.97;;;2.80;;
7883;SDS011;3987;51.458;7.238;2022-07-23T11:22:40;3.00;;;2.90;;
7883;SDS011;3987;51.458;7.238;2022-07-23T11:27:48;3.27;;;3.00;;
7883;SDS011;3987;51.458;7.238;2022-07-23T11:32:54;3.03;;;2.70;;
7883;SDS011;3987;51.458;7.238;2022-07-23T11:37:46;2.37;;;2.27;;
7883;SDS011;3987;51.458;7.238;2022-07-23T11:40:13;4.27;;;2.83;;
7883;SDS011;3987;51.458;7.238;2022-07-23T11:42:57;3.00;;;2.80;;
7883;SDS011;3987;51.458;7.238;2022-07-23T11:45:48;2.30;;;2.30;;
7883;SDS011;3987;51.458;7.238;2022-07-23T11:48:26;2.13;;;2.10;;
7883;SDS011;3987;51.458;7.238;2022-07-23T11:50:53;3.40;;;3.30;;
7883;SDS011;3987;51.458;7.238;2022-07-23T11:53:31;3.40;;;3.10;;
7883;SDS011;3987;51.458;7.238;2022-07-23T11:56:08;3.10;;;2.37;;
7883;SDS011;3987;51.458;7.238;2022-07-23T11:58:35;3.13;;;2.80;;
7883;SDS011;3987;51.458;7.238;2022-07-23T12:01:01;3.17;;;2.97;;
7883;SDS011;3987;51.458;7.238;2022-07-23T12:03:26;2.97;;;2.77;;
7883;SDS011;3987;51.458;7.238;2022-07-23T12:05:55;2.97;;;2.87;;
7883;SDS011;3987;51.458;7.238;2022-07-23T12:08:24;2.83;;;2.70;;
7883;SDS011;3987;51.458;7.238;2022-07-23T12:10:50;2.63;;;2.53;;
7883;SDS011;3987;51.458;7.238;2022-07-23T12:13:16;1.80;;;1.80;;
7883;SDS011;3987;51.458;7.238;2022-07-23T12:15:47;2.00;;;1.90;;
7883;SDS011;3987;51.458;7.238;2022-07-23T12:18:16;2.73;;;2.63;;
7883;SDS011;3987;51.458;7.238;2022-07-23T12:20:43;2.20;;;2.10;;
7883;SDS011;3987;51.458;7.238;2022-07-23T12:23:11;1.60;;;1.60;;
7883;SDS011;3987;51.458;7.238;2022-07-23T12:25:39;1.90;;;1.80;;
7883;SDS011;3987;51.458;7.238;2022-07-23T12:28:10;3.03;;;1.63;;
7883;SDS011;3987;51.458;7.238;2022-07-23T12:30:38;2.13;;;2.03;;
7883;SDS011;3987;51.458;7.238;2022-07-23T12:33:09;1.70;;;1.70;;
7883;SDS011;3987;51.458;7.238;2022-07-23T12:35:37;1.70;;;1.60;;
7883;SDS011;3987;51.458;7.238;2022-07-23T12:38:07;1.70;;;1.60;;
7883;SDS011;3987;51.458;7.238;2022-07-23T12:40:35;1.70;;;1.70;;
7883;SDS011;3987;51.458;7.238;2022-07-23T12:43:17;2.30;;;2.10;;
7883;SDS011;3987;51.458;7.238;2022-07-23T12:45:47;1.47;;;1.47;;
7883;SDS011;3987;51.458;7.238;2022-07-23T12:48:23;1.77;;;1.77;;
7883;SDS011;3987;51.458;7.238;2022-07-23T12:51:09;1.63;;;1.63;;
7883;SDS011;3987;51.458;7.238;2022-07-23T12:53:52;2.00;;;1.87;;
7883;SDS011;3987;51.458;7.238;2022-07-23T12:56:19;2.38;;;1.45;;
7883;SDS011;3987;51.458;7.238;2022-07-23T13:03:53;2.43;;;2.33;;
7883;SDS011;3987;51.458;7.238;2022-07-23T13:06:29;1.35;;;1.33;;
7883;SDS011;3987;51.458;7.238;2022-07-23T13:08:56;1.50;;;1.50;;
7883;SDS011;3987;51.458;7.238;2022-07-23T13:11:21;1.60;;;1.50;;
7883;SDS011;3987;51.458;7.238;2022-07-23T13:13:47;1.30;;;1.30;;
7883;SDS011;3987;51.458;7.238;2022-07-23T13:16:12;2.40;;;2.10;;
7883;SDS011;3987;51.458;7.238;2022-07-23T13:18:38;1.60;;;1.20;;
7883;SDS011;3987;51.458;7.238;2022-07-23T13:21:03;1.30;;;1.30;;
7883;SDS011;3987;51.458;7.238;2022-07-23T13:23:29;1.33;;;1.33;;
7883;SDS011;3987;51.458;7.238;2022-07-23T13:25:54;1.50;;;1.50;;
7883;SDS011;3987;51.458;7.238;2022-07-23T13:28:20;2.00;;;2.00;;
7883;SDS011;3987;51.458;7.238;2022-07-23T13:30:47;1.80;;;1.70;;
7883;SDS011;3987;51.458;7.238;2022-07-23T13:33:14;1.85;;;1.75;;
7883;SDS011;3987;51.458;7.238;2022-07-23T13:35:41;1.83;;;1.80;;
7883;SDS011;3987;51.458;7.238;2022-07-23T13:38:07;1.60;;;1.60;;
7883;SDS011;3987;51.458;7.238;2022-07-23T13:40:33;1.42;;;1.42;;
7883;SDS011;3987;51.458;7.238;2022-07-23T13:43:04;1.83;;;1.73;;
7883;SDS011;3987;51.458;7.238;2022-07-23T13:45:31;1.30;;;1.20;;
7883;SDS011;3987;51.458;7.238;2022-07-23T13:47:56;2.22;;;1.40;;
7883;SDS011;3987;51.458;7.238;2022-07-23T13:50:22;1.42;;;1.27;;
7883;SDS011;3987;51.458;7.238;2022-07-23T13:52:47;1.00;;;1.00;;
7883;SDS011;3987;51.458;7.238;2022-07-23T13:55:13;1.65;;;1.38;;
7883;SDS011;3987;51.458;7.238;2022-07-23T13:57:38;1.33;;;1.33;;
7883;SDS011;3987;51.458;7.238;2022-07-23T14:00:04;1.27;;;1.17;;
7883;SDS011;3987;51.458;7.238;2022-07-23T14:02:32;1.25;;;1.25;;
7883;SDS011;3987;51.458;7.238;2022-07-23T14:04:58;1.40;;;1.40;;
7883;SDS011;3987;51.458;7.238;2022-07-23T14:07:23;1.48;;;1.48;;
7883;SDS011;3987;51.458;7.238;2022-07-23T14:09:49;1.40;;;1.40;;
7883;SDS011;3987;51.458;7.238;2022-07-23T14:12:15;1.60;;;1.45;;
7883;SDS011;3987;51.458;7.238;2022-07-23T14:14:40;1.90;;;1.80;;
7883;SDS011;3987;51.458;7.238;2022-07-23T14:17:05;1.40;;;1.40;;
7883;SDS011;3987;51.458;7.238;2022-07-23T14:19:31;1.60;;;1.60;;
7883;SDS011;3987;51.458;7.238;2022-07-23T14:21:56;1.95;;;1.35;;
7883;SDS011;3987;51.458;7.238;2022-07-23T14:24:22;1.80;;;1.70;;
7883;SDS011;3987;51.458;7.238;2022-07-23T14:26:47;1.63;;;1.63;;
7883;SDS011;3987;51.458;7.238;2022-07-23T14:29:13;1.95;;;1.85;;
7883;SDS011;3987;51.458;7.238;2022-07-23T14:31:38;1.83;;;1.83;;
7883;SDS011;3987;51.458;7.238;2022-07-23T14:34:04;1.52;;;1.50;;
7883;SDS011;3987;51.458;7.238;2022-07-23T14:36:30;1.60;;;1.50;;
7883;SDS011;3987;51.458;7.238;2022-07-23T14:38:55;1.83;;;1.73;;
7883;SDS011;3987;51.458;7.238;2022-07-23T14:41:21;1.97;;;1.87;;
7883;SDS011;3987;51.458;7.238;2022-07-23T14:43:46;1.53;;;1.53;;
7883;SDS011;3987;51.458;7.238;2022-07-23T14:46:12;1.90;;;1.80;;
7883;SDS011;3987;51.458;7.238;2022-07-23T14:48:38;2.00;;;1.90;;
7883;SDS011;3987;51.458;7.238;2022-07-23T14:51:03;1.93;;;1.83;;
7883;SDS011;3987;51.458;7.238;2022-07-23T14:53:29;2.30;;;2.20;;
7883;SDS011;3987;51.458;7.238;2022-07-23T14:55:54;1.50;;;1.50;;
7883;SDS011;3987;51.458;7.238;2022-07-23T14:58:22;1.60;;;1.60;;
7883;SDS011;3987;51.458;7.238;2022-07-23T15:00:48;1.70;;;1.70;;
7883;SDS011;3987;51.458;7.238;2022-07-23T15:03:13;2.03;;;2.03;;
7883;SDS011;3987;51.458;7.238;2022-07-23T15:05:38;2.17;;;2.10;;
7883;SDS011;3987;51.458;7.238;2022-07-23T15:08:04;2.20;;;1.97;;
7883;SDS011;3987;51.458;7.238;2022-07-23T15:10:29;1.90;;;1.80;;
7883;SDS011;3987;51.458;7.238;2022-07-23T15:12:55;1.67;;;1.67;;
7883;SDS011;3987;51.458;7.238;2022-07-23T15:15:20;1.93;;;1.83;;
7883;SDS011;3987;51.458;7.238;2022-07-23T15:17:46;2.03;;;2.03;;
7883;SDS011;3987;51.458;7.238;2022-07-23T15:20:11;2.10;;;2.10;;
7883;SDS011;3987;51.458;7.238;2022-07-23T15:22:37;1.63;;;1.60;;
7883;SDS011;3987;51.458;7.238;2022-07-23T15:25:02;1.87;;;1.77;;
7883;SDS011;3987;51.458;7.238;2022-07-23T15:27:28;1.97;;;1.97;;
7883;SDS011;3987;51.458;7.238;2022-07-23T15:29:53;2.00;;;1.97;;
7883;SDS011;3987;51.458;7.238;2022-07-23T15:32:19;2.30;;;2.27;;
7883;SDS011;3987;51.458;7.238;2022-07-23T15:34:44;2.67;;;2.57;;
7883;SDS011;3987;51.458;7.238;2022-07-23T15:37:10;2.27;;;2.23;;
7883;SDS011;3987;51.458;7.238;2022-07-23T15:39:35;2.17;;;2.07;;
7883;SDS011;3987;51.458;7.238;2022-07-23T15:42:02;2.10;;;2.00;;
7883;SDS011;3987;51.458;7.238;2022-07-23T15:44:27;1.67;;;1.67;;
7883;SDS011;3987;51.458;7.238;2022-07-23T15:46:53;2.27;;;2.20;;